Great Bend, KS (67530)

4:39 PM CDT on October 25, 2014 (GMT -0500)
Eisenhower School Area | Change Station
CLOSE
Current Station
Personal Weather Station
Location: Great Bend, KS
Elevation: 1860 ft
Nearby Weather Stations

Elev 1860 ft 38.36 °N, 98.79 °W | Updated 44 seconds ago

Clear
Clear
89.7 °F
Feels Like 87 °F
N
7.0
Wind Variable Wind from SSW
Gusts 15.0 mph

Today
High -- | Low -- °F
--% Chance of Precip.
Yesterday
High -- | Low -- °F
Precip. -- in
7:54 AM 6:43 PM
Waxing Crescent, 4% visible
Pressure 29.98 in
Visibility 10.0 miles
Clouds Clear
Heat Index 87 °F
Dew Point 53 °F
Humidity 29%
Rainfall 0.00 in
Snow Depth Not available.
UV 2 out of 12
Pollen 3.50 out of 12
Air Quality Not available.
Flu Activity No Activity
METAR KGBD 252135Z AUTO 18015KT 10SM CLR 31/10 A2998 RMK AO1

More Conditions Fewer Conditions

Pressure 29.98 in
Visibility 10.0 miles
Clouds Clear
Heat Index 87 °F
Dew Point 53 °F
Humidity 29%
Rainfall 0.00 in
Snow Depth Not available.
UV 2 out of 12
Pollen 3.50 out of 12
Air Quality Not available.
Flu Activity No Activity
METAR KGBD 252135Z AUTO 18015KT 10SM CLR 31/10 A2998 RMK AO1

More Conditions Fewer Conditions

10-Day Weather Forecast

Almanac

Astronomy

Oct. 25, 2014 Rise Set
Actual Time 7:54 AM CDT 6:43 PM CDT
Civil Twilight 7:27 AM CDT 7:10 PM CDT
Nautical Twilight 6:56 AM CDT 7:41 PM CDT
Astronomical Twilight 6:25 AM CDT 8:12 PM CDT
Moon 9:33 AM CDT 8:09 PM CDT
Length of Visible Light 11h 43m
Length of Day
10h 49m
Tomorrow will be 2m 17s shorter.
Waxing Crescent, 4% of the Moon is Illuminated
Today
Waxing Crescent
Oct 30
First Quarter
Nov 6
Full
Nov 14
Last Quarter
Nov 22
New

Today's Extremes

State Highs State Lows

Community

WunderPhotos

Upload Photos

1,765,007 photos uploaded!

Nearby

Snow Depth

Station Depth Elevation
No new snow has been reported.

Earthquake Activity

City Distance Mag. Time & Date
Mooreland, Oklahoma 131 miles 2.9 3:21 PM CDT
2014-10-25
Mooreland, Oklahoma 134 miles 2.5 2:43 PM CDT
2014-10-24
Medford, Oklahoma 120 miles 2.6 12:44 PM CDT
2014-10-24
Mooreland, Oklahoma 131 miles 2.5 12:39 PM CDT
2014-10-24
Minimum magnitude displayed is 2.5.

Coastal Water Temperatures

Place Temperature
No Stations Reporting

Nearby Weather Stations